Flight Track Log - Related Links

Times and Time Zones

All times are in EDT time to prevent confusion due to time zone crossing. See the N388T flight status page for this flight to view local times or setup timezone preferences in your user account.

Time Position Orientation Groundspeed Altitude Reporting Facility
EDT Latitude Longitude Course Direction KTS MPH feet Rate Location/Type
Fri 06:11:33 PM 40.1333 -85.6167 323° Northwest 111 128 2,900  Level Indianapolis TRACON
Fri 06:12:15 PM 40.1500 -85.6333 323° Northwest 110 127 3,100 371 Climbing Indianapolis TRACON
Fri 06:13:10 PM 40.1717 -85.6575 320° Northwest 106 122 3,500 462 Climbing Indianapolis Center
Fri 06:14:12 PM 40.1928 -85.6814 319° Northwest 104 120 4,000 484 Climbing Chicago Center
Fri 06:15:14 PM 40.2139 -85.7089 315° West 105 121 4,500 242 Climbing Chicago Center
Fri 06:16:16 PM 40.2372 -85.7350 319° Northwest 106 122 4,500  Level Chicago Center
Fri 06:17:18 PM 40.2653 -85.7653 321° Northwest 117 135 4,500  Level Chicago Center
Fri 06:18:07 PM 40.2908 -85.7972 316° Northwest 130 150 4,500  Level Chicago Center
Fri 06:19:08 PM 40.3192 -85.8286 320° Northwest 130 150 4,500  Level Chicago Center
Fri 06:20:08 PM 40.3456 -85.8597 318° Northwest 129 148 4,500  Level Chicago Center
Fri 06:20:24 PM 40.3536 -85.8647 335° Northwest 130 150 4,500  Level Chicago Center
Fri 06:21:09 PM 40.3758 -85.8886 321° Northwest 130 150 4,500 95 Level Chicago Center
Fri 06:21:27 PM 40.3817 -85.8953 319° Northwest 131 151 4,600  Climbing Chicago Center
Fri 06:22:09 PM 40.4022 -85.9172 321° Northwest 130 150 4,500 -97 Descending Chicago Center
Fri 06:22:29 PM 40.4106 -85.9236 330° Northwest 130 150 4,500 98 Level Chicago Center
Fri 06:23:10 PM 40.4303 -85.9489 316° Northwest 127 146 4,600 97 Climbing Chicago Center
Fri 06:23:31 PM 40.4367 -85.9539 329° Northwest 126 145 4,600 -98 Level Chicago Center
Fri 06:24:11 PM 40.4586 -85.9803 318° Northwest 131 151 4,500  Descending Chicago Center
Fri 06:24:33 PM 40.4650 -85.9850 331° Northwest 129 148 4,600  Climbing Chicago Center
Fri 06:25:11 PM 40.4869 -86.0119 317° Northwest 128 147 4,500  Descending Chicago Center
Fri 06:25:35 PM 40.4969 -86.0208 326° Northwest 129 148 4,600 98 Climbing Chicago Center
Fri 06:26:12 PM 40.5131 -86.0406 317° Northwest 129 148 4,600  Level Chicago Center
Fri 06:26:37 PM 40.5253 -86.0514 326° Northwest 130 150 4,600 -91 Level Chicago Center
Fri 06:27:18 PM 40.5456 -86.0722 322° Northwest 131 151 4,500 -97 Descending Chicago Center
Fri 06:27:39 PM 40.5544 -86.0819 320° Northwest 131 151 4,500 98 Level Chicago Center
Fri 06:28:19 PM 40.5758 -86.1069 318° Northwest 133 153 4,600 97 Climbing Chicago Center
Fri 06:28:41 PM 40.5836 -86.1125 332° Northwest 132 152 4,600  Level Chicago Center
Fri 06:29:20 PM 40.6019 -86.1356 316° Northwest 133 153 4,600  Level Chicago Center
Fri 06:29:43 PM 40.6128 -86.1444 328° Northwest 135 155 4,600  Level Chicago Center
Fri 06:30:20 PM 40.6344 -86.1647 325° Northwest 134 154 4,600  Level Chicago Center
Fri 06:30:45 PM 40.6433 -86.1717 329° Northwest 133 153 4,600 -98 Level Chicago Center
Fri 06:31:21 PM 40.6647 -86.1939 322° Northwest 135 155 4,500 -97 Descending Chicago Center
Fri 06:31:47 PM 40.6783 -86.2081 322° Northwest 135 155 4,500  Level Chicago Center
Fri 06:32:21 PM 40.6950 -86.2283 317° Northwest 133 153 4,500  Level Chicago Center
Fri 06:32:49 PM 40.7061 -86.2381 326° Northwest 133 153 4,500  Level Chicago Center
Fri 06:33:22 PM 40.7231 -86.2575 319° Northwest 133 153 4,500 97 Level Chicago Center
Fri 06:33:51 PM 40.7356 -86.2700 323° Northwest 135 155 4,600 98 Climbing Chicago Center
Fri 06:34:23 PM 40.7514 -86.2892 317° Northwest 132 152 4,600  Level Chicago Center
Fri 06:34:53 PM 40.7639 -86.3006 325° Northwest 133 153 4,600  Level Chicago Center
Fri 06:35:23 PM 40.7797 -86.3183 320° Northwest 133 153 4,600  Level Chicago Center
Fri 06:35:55 PM 40.7925 -86.3322 321° Northwest 134 154 4,600 -98 Level Chicago Center
Fri 06:36:24 PM 40.8097 -86.3531 318° Northwest 134 154 4,500 -97 Descending Chicago Center
Fri 06:36:57 PM 40.8200 -86.3619 327° Northwest 132 152 4,500 -100 Level Chicago Center
Fri 06:37:24 PM 40.8378 -86.3850 316° Northwest 139 160 4,400  Descending Chicago Center
Fri 06:38:00 PM 40.8542 -86.4014 323° Northwest 133 153 4,500 98 Climbing Chicago Center
Fri 06:38:25 PM 40.8681 -86.4169 320° Northwest 136 157 4,500 -97 Level Chicago Center
Fri 06:39:02 PM 40.8850 -86.4319 326° Northwest 135 155 4,400  Descending Chicago Center
Fri 06:39:26 PM 40.8983 -86.4461 321° Northwest 135 155 4,500 97 Climbing Chicago Center
Fri 06:40:04 PM 40.9142 -86.4614 324° Northwest 135 155 4,500  Level Chicago Center
Fri 06:40:32 PM 40.9306 -86.4811 318° Northwest 134 154 4,500  Level Chicago Center
Fri 06:41:06 PM 40.9425 -86.4953 318° Northwest 135 155 4,500  Level Chicago Center
Fri 06:42:08 PM 40.9731 -86.5281 321° Northwest 138 159 4,500  Level Chicago Center
Fri 06:43:10 PM 41.0017 -86.5619 318° Northwest 137 158 4,500  Level Chicago Center
Fri 06:44:12 PM 41.0378 -86.5992 322° Northwest 136 157 4,500  Level Chicago Center
Fri 06:45:14 PM 41.0669 -86.6325 319° Northwest 138 159 4,500  Level Chicago Center
Fri 06:46:16 PM 41.0978 -86.6617 325° Northwest 136 157 4,500 48 Level Chicago Center
Fri 06:47:18 PM 41.1286 -86.6925 323° Northwest 138 159 4,600  Climbing Chicago Center
Fri 06:48:20 PM 41.1617 -86.7261 323° Northwest 140 161 4,500 -96 Descending Chicago Center
Fri 06:49:23 PM 41.1961 -86.7558 327° Northwest 146 168 4,400 -48 Descending Chicago Center
Fri 06:50:25 PM 41.2333 -86.7886 326° Northwest 137 158 4,400 -145 Level Chicago Center
Fri 06:51:27 PM 41.2675 -86.8142 331° Northwest 139 160 4,100 -242 Descending Chicago Center
Fri 06:52:29 PM 41.2972 -86.8381 329° Northwest 132 152 3,900 -194 Descending Chicago Center
Fri 06:53:31 PM 41.3261 -86.8644 326° Northwest 128 147 3,700 -194 Descending Chicago Center

Login

Don't have an account? Register now (free) for customized features, flight alerts, and more!